createdAt,value
2022-09-23T00:01:27.291Z,100116.52
2022-09-23T00:03:56.490Z,100118.52
2022-09-23T00:06:25.463Z,100116.88
2022-09-23T00:08:54.615Z,100117.53
2022-09-23T00:11:26.105Z,100117.86
2022-09-23T00:13:58.905Z,100117.21
2022-09-23T00:16:34.356Z,100114.00
2022-09-23T00:19:05.059Z,100112.00
2022-09-23T00:21:33.156Z,100107.13
2022-09-23T00:24:02.467Z,100108.19
2022-09-23T00:26:30.613Z,100107.91
2022-09-23T00:28:58.761Z,100111.59
2022-09-23T00:31:27.850Z,100108.60
2022-09-23T00:33:58.303Z,100109.23
2022-09-23T00:36:28.436Z,100107.46
2022-09-23T00:38:57.301Z,100105.78
2022-09-23T00:41:28.024Z,100104.05
2022-09-23T00:44:00.909Z,100103.91
2022-09-23T00:46:35.574Z,100104.45
2022-09-23T00:49:11.181Z,100106.52
2022-09-23T00:51:45.444Z,100109.69
2022-09-23T00:54:13.632Z,100111.03
2022-09-23T00:56:41.782Z,100113.48
2022-09-23T00:59:11.351Z,100113.05
2022-09-23T01:01:39.927Z,100115.63
2022-09-23T01:04:08.858Z,100114.95
2022-09-23T01:06:37.014Z,100117.34
2022-09-23T01:09:05.353Z,100120.30
2022-09-23T01:11:41.058Z,100121.34
2022-09-23T01:14:37.093Z,100122.00
2022-09-23T01:17:19.505Z,100120.23
2022-09-23T01:20:16.310Z,100115.52
2022-09-23T01:22:50.097Z,100116.20
2022-09-23T01:26:04.039Z,100118.32
2022-09-23T01:28:50.555Z,100123.87
2022-09-23T01:31:32.114Z,100123.86
2022-09-23T01:34:16.091Z,100129.40
2022-09-23T01:36:51.760Z,100126.27
2022-09-23T01:39:45.986Z,100126.20
2022-09-23T01:42:43.016Z,100123.54
2022-09-23T01:45:11.092Z,100125.48
2022-09-23T01:48:25.391Z,100126.59
2022-09-23T01:51:21.172Z,100129.47
2022-09-23T01:54:00.107Z,100128.33
2022-09-23T01:56:34.393Z,100125.99
2022-09-23T01:59:17.214Z,100126.25
2022-09-23T02:02:16.079Z,100129.13
2022-09-23T02:04:54.280Z,100133.52
2022-09-23T02:07:40.269Z,100133.57
2022-09-23T02:10:25.590Z,100137.79
2022-09-23T02:13:00.718Z,100137.37
2022-09-23T02:15:35.370Z,100133.86
2022-09-23T02:18:33.247Z,100139.67
2022-09-23T02:21:06.402Z,100140.66
2022-09-23T02:23:42.666Z,100137.34
2022-09-23T02:26:35.807Z,100140.45
2022-09-23T02:29:19.676Z,100142.63
2022-09-23T02:31:50.700Z,100143.59
2022-09-23T02:34:39.413Z,100143.69
2022-09-23T02:37:37.327Z,100146.39
2022-09-23T02:40:15.027Z,100143.43
2022-09-23T02:43:05.850Z,100146.00
2022-09-23T02:45:34.550Z,100145.66
2022-09-23T02:48:22.274Z,100148.25
2022-09-23T02:50:50.524Z,100148.40
2022-09-23T02:53:18.928Z,100147.91
2022-09-23T02:55:46.929Z,100147.71
2022-09-23T02:58:15.040Z,100145.85
2022-09-23T03:01:16.049Z,100145.85
2022-09-23T03:03:57.326Z,100147.02
2022-09-23T03:06:32.139Z,100146.57
2022-09-23T03:09:11.443Z,100148.89
2022-09-23T03:11:46.007Z,100146.70
2022-09-23T03:14:39.639Z,100145.55
2022-09-23T03:17:21.771Z,100149.47
2022-09-23T03:19:58.773Z,100148.86
2022-09-23T03:22:56.325Z,100151.52
2022-09-23T03:25:26.961Z,100150.55
2022-09-23T03:28:01.060Z,100150.82
2022-09-23T03:30:29.967Z,100150.02
2022-09-23T03:33:01.154Z,100152.42
2022-09-23T03:35:32.212Z,100147.08
2022-09-23T03:38:16.141Z,100155.96
2022-09-23T03:40:47.866Z,100148.40
2022-09-23T03:43:16.816Z,100143.99
2022-09-23T03:45:46.935Z,100144.86
2022-09-23T03:48:15.843Z,100144.67
2022-09-23T03:50:44.651Z,100144.69
2022-09-23T03:53:13.889Z,100150.58
2022-09-23T03:55:41.959Z,100147.08
2022-09-23T03:58:09.967Z,100143.96
2022-09-23T04:00:38.096Z,100145.15
2022-09-23T04:03:10.882Z,100146.41
2022-09-23T04:05:39.749Z,100149.21
2022-09-23T04:08:07.949Z,100145.56
2022-09-23T04:10:36.077Z,100148.34
2022-09-23T04:13:17.355Z,100146.97
2022-09-23T04:15:45.419Z,100143.39
2022-09-23T04:18:13.439Z,100145.45
2022-09-23T04:20:41.567Z,100145.89
2022-09-23T04:23:09.598Z,100148.13
2022-09-23T04:25:47.619Z,100146.17
2022-09-23T04:28:16.518Z,100148.35
2022-09-23T04:30:46.195Z,100150.65
2022-09-23T04:33:14.832Z,100149.61
2022-09-23T04:35:45.849Z,100145.11
2022-09-23T04:38:13.990Z,100145.16
2022-09-23T04:40:42.137Z,100149.42
2022-09-23T04:43:13.468Z,100154.07
2022-09-23T04:45:45.397Z,100154.30
2022-09-23T04:48:14.091Z,100158.14
2022-09-23T04:50:42.571Z,100160.45
2022-09-23T04:53:10.676Z,100157.61
2022-09-23T04:55:38.705Z,100162.03
2022-09-23T04:58:09.222Z,100162.14
2022-09-23T05:00:38.469Z,100161.78
2022-09-23T05:03:07.289Z,100163.84
2022-09-23T05:05:35.297Z,100165.09
2022-09-23T05:08:03.428Z,100163.77
2022-09-23T05:10:31.505Z,100160.55
2022-09-23T05:12:59.585Z,100162.84
2022-09-23T05:15:27.785Z,100163.59
2022-09-23T05:17:59.234Z,100165.66
2022-09-23T05:20:27.410Z,100162.88
2022-09-23T05:22:56.328Z,100161.92
2022-09-23T05:25:24.487Z,100164.31
2022-09-23T05:27:52.773Z,100165.70
2022-09-23T05:30:20.844Z,100163.59
2022-09-23T05:32:48.855Z,100161.48
2022-09-23T05:35:17.030Z,100162.83
2022-09-23T05:37:45.059Z,100163.36
2022-09-23T05:40:13.132Z,100166.46
2022-09-23T05:42:41.337Z,100164.73
2022-09-23T05:45:09.885Z,100164.52
2022-09-23T05:47:38.364Z,100164.61
2022-09-23T05:50:07.302Z,100168.35
2022-09-23T05:52:35.462Z,100170.45
2022-09-23T05:55:03.729Z,100169.95
2022-09-23T05:57:32.786Z,100167.56
2022-09-23T06:00:01.184Z,100169.12
2022-09-23T06:02:29.475Z,100172.14
2022-09-23T06:04:57.592Z,100169.33
2022-09-23T06:07:25.763Z,100168.58
2022-09-23T06:09:54.156Z,100168.11
2022-09-23T06:12:22.638Z,100169.15
2022-09-23T06:14:50.828Z,100171.55
2022-09-23T06:17:18.926Z,100175.36
2022-09-23T06:19:47.077Z,100176.08
2022-09-23T06:22:17.090Z,100174.77
2022-09-23T06:24:45.129Z,100175.34
2022-09-23T06:27:13.569Z,100171.80
2022-09-23T06:29:41.637Z,100173.83
2022-09-23T06:32:09.745Z,100175.29
2022-09-23T06:34:49.482Z,100174.30
2022-09-23T06:37:20.791Z,100170.59
2022-09-23T06:39:49.694Z,100172.75
2022-09-23T06:42:17.772Z,100174.44
2022-09-23T06:44:45.860Z,100176.05
2022-09-23T06:47:14.531Z,100174.55
2022-09-23T06:49:42.587Z,100177.14
2022-09-23T06:52:11.137Z,100175.20
2022-09-23T06:54:39.237Z,100175.27
2022-09-23T06:57:07.345Z,100178.08
2022-09-23T06:59:35.845Z,100177.14
2022-09-23T07:02:04.212Z,100177.09
2022-09-23T07:04:32.493Z,100173.89
2022-09-23T07:07:00.608Z,100178.42
2022-09-23T07:09:29.226Z,100179.34
2022-09-23T07:11:57.234Z,100182.31
2022-09-23T07:14:25.523Z,100176.35
2022-09-23T07:16:54.224Z,100177.14
2022-09-23T07:19:22.350Z,100173.55
2022-09-23T07:21:50.409Z,100172.27
2022-09-23T07:24:18.558Z,100174.31
2022-09-23T07:26:46.645Z,100176.79
2022-09-23T07:29:15.204Z,100171.47
2022-09-23T07:31:43.295Z,100173.77
2022-09-23T07:34:11.840Z,100173.25
2022-09-23T07:36:41.078Z,100173.53
2022-09-23T07:39:12.384Z,100174.30
2022-09-23T07:41:44.609Z,100169.48
2022-09-23T07:44:13.017Z,100163.93
2022-09-23T07:46:41.483Z,100165.45
2022-09-23T07:49:10.708Z,100166.00
2022-09-23T07:51:41.307Z,100161.08
2022-09-23T07:54:13.843Z,100162.64
2022-09-23T07:56:43.740Z,100156.73
2022-09-23T07:59:17.820Z,100155.22
2022-09-23T08:01:48.387Z,100150.98
2022-09-23T08:04:24.081Z,100144.77
2022-09-23T08:06:56.529Z,100145.07
2022-09-23T08:09:28.792Z,100139.29
2022-09-23T08:11:56.892Z,100136.70
2022-09-23T08:14:25.276Z,100134.71
2022-09-23T08:16:54.272Z,100136.50
2022-09-23T08:19:22.411Z,100132.27
2022-09-23T08:21:52.385Z,100132.30
2022-09-23T08:24:24.242Z,100133.71
2022-09-23T08:26:54.337Z,100130.77
2022-09-23T08:29:24.467Z,100132.67
2022-09-23T08:31:53.617Z,100132.02
2022-09-23T08:34:23.621Z,100129.09
2022-09-23T08:36:52.517Z,100124.65
2022-09-23T08:39:21.254Z,100125.73
2022-09-23T08:41:49.625Z,100122.30
2022-09-23T08:44:25.323Z,100123.73
2022-09-23T08:47:33.811Z,100118.75
2022-09-23T08:50:13.595Z,100121.19
2022-09-23T08:52:57.065Z,100120.47
2022-09-23T08:55:40.686Z,100115.81
2022-09-23T08:58:34.947Z,100115.27
2022-09-23T09:01:10.386Z,100114.34
2022-09-23T09:03:54.006Z,100110.50
2022-09-23T09:07:24.680Z,100103.39
2022-09-23T09:10:06.748Z,100094.70
2022-09-23T09:12:43.582Z,100091.34
2022-09-23T09:15:16.350Z,100091.15
2022-09-23T09:18:12.358Z,100082.02
2022-09-23T09:20:45.641Z,100086.07
2022-09-23T09:23:24.503Z,100083.16
2022-09-23T09:25:55.341Z,100083.73
2022-09-23T09:28:40.172Z,100088.20
2022-09-23T09:31:22.655Z,100084.28
2022-09-23T09:34:06.446Z,100089.17
2022-09-23T09:36:57.882Z,100088.23
2022-09-23T09:39:27.609Z,100085.80
2022-09-23T09:42:00.295Z,100084.59
2022-09-23T09:44:45.098Z,100091.39
2022-09-23T09:47:51.819Z,100094.20
2022-09-23T09:50:47.562Z,100099.74
2022-09-23T09:53:27.252Z,100104.17
2022-09-23T09:56:04.872Z,100106.11
2022-09-23T09:59:04.130Z,100105.21
2022-09-23T10:01:34.682Z,100107.98
2022-09-23T10:04:31.446Z,100112.54
2022-09-23T10:07:13.412Z,100105.08
2022-09-23T10:09:49.762Z,100110.19
2022-09-23T10:12:22.029Z,100106.77
2022-09-23T10:14:59.221Z,100107.35
2022-09-23T10:17:33.211Z,100105.84
2022-09-23T10:20:03.096Z,100103.42
2022-09-23T10:22:41.072Z,100093.55
2022-09-23T10:25:19.486Z,100095.20
2022-09-23T10:27:47.582Z,100087.23
2022-09-23T10:30:15.634Z,100087.84
2022-09-23T10:32:45.043Z,100094.06
2022-09-23T10:35:16.539Z,100090.48
2022-09-23T10:37:48.684Z,100081.63
2022-09-23T10:40:48.527Z,100075.87
2022-09-23T10:43:57.959Z,100079.15
2022-09-23T10:46:47.669Z,100069.38
2022-09-23T10:49:37.339Z,100069.05
2022-09-23T10:52:19.374Z,100073.00
2022-09-23T10:54:53.341Z,100070.27
2022-09-23T10:57:46.522Z,100076.59
2022-09-23T11:00:41.283Z,100077.30
2022-09-23T11:03:27.896Z,100077.59
2022-09-23T11:06:13.926Z,100070.59
2022-09-23T11:09:08.682Z,100064.91
2022-09-23T11:12:14.385Z,100061.58
2022-09-23T11:14:45.484Z,100049.78
2022-09-23T11:17:29.651Z,100048.68
2022-09-23T11:20:03.244Z,100043.66
2022-09-23T11:22:37.660Z,100039.48
2022-09-23T11:25:53.866Z,100042.39
2022-09-23T11:28:51.131Z,100038.41
2022-09-23T11:31:50.669Z,100039.27
2022-09-23T11:34:47.417Z,100032.80
2022-09-23T11:37:23.257Z,100037.13
2022-09-23T11:40:30.794Z,100037.92
2022-09-23T11:43:07.701Z,100036.50
2022-09-23T11:45:46.506Z,100037.79
2022-09-23T11:48:23.791Z,100044.70
2022-09-23T11:50:57.547Z,100043.27
2022-09-23T11:53:31.672Z,100043.27
2022-09-23T11:56:10.346Z,100039.48
2022-09-23T11:58:50.127Z,100035.17
2022-09-23T12:01:37.969Z,100036.49
2022-09-23T12:04:21.190Z,100036.13
2022-09-23T12:07:08.471Z,100036.94
2022-09-23T12:10:00.450Z,100036.65
2022-09-23T12:12:53.141Z,100037.21
2022-09-23T12:15:30.122Z,100034.16
2022-09-23T12:18:18.376Z,100027.27
2022-09-23T12:21:08.320Z,100021.90
2022-09-23T12:23:47.673Z,100011.88
2022-09-23T12:26:19.931Z,100004.64
2022-09-23T12:28:53.066Z,100011.31
2022-09-23T12:31:31.849Z,100009.17
2022-09-23T12:34:09.206Z,100012.09
2022-09-23T12:36:39.604Z,100012.19
2022-09-23T12:39:30.530Z,100004.65
2022-09-23T12:42:17.740Z,100000.71
2022-09-23T12:44:48.688Z,99999.26
2022-09-23T12:47:25.563Z,99998.84
2022-09-23T12:49:54.899Z,99997.38
2022-09-23T12:52:27.492Z,99995.68
2022-09-23T12:54:58.403Z,99997.89
2022-09-23T12:57:35.714Z,99999.52
2022-09-23T13:00:07.087Z,99997.88
2022-09-23T13:02:39.974Z,99999.10
2022-09-23T13:05:26.833Z,99998.98
2022-09-23T13:08:18.466Z,99995.59
2022-09-23T13:10:58.671Z,99994.58
2022-09-23T13:13:38.008Z,99994.10
2022-09-23T13:16:33.240Z,99996.58
2022-09-23T13:19:06.633Z,99998.98
2022-09-23T13:21:45.845Z,99993.52
2022-09-23T13:24:14.432Z,99992.00
2022-09-23T13:26:47.837Z,99989.18
2022-09-23T13:29:44.344Z,99980.40
2022-09-23T13:32:24.076Z,99976.09
2022-09-23T13:35:02.772Z,99971.85
2022-09-23T13:37:47.707Z,99973.21
2022-09-23T13:40:29.758Z,99985.51
2022-09-23T13:43:02.421Z,99983.67
2022-09-23T13:45:32.476Z,99986.48
2022-09-23T13:48:08.349Z,99987.55
2022-09-23T13:50:39.062Z,99987.05
2022-09-23T13:53:14.384Z,99991.48
2022-09-23T13:55:42.578Z,99991.31
2022-09-23T13:58:13.713Z,99997.27
2022-09-23T14:00:42.134Z,99994.32
2022-09-23T14:03:31.162Z,99997.75
2022-09-23T14:06:05.441Z,99996.48
2022-09-23T14:08:33.905Z,99996.81
2022-09-23T14:11:05.283Z,99993.77
2022-09-23T14:13:41.440Z,99999.52
2022-09-23T14:16:14.950Z,100006.56
2022-09-23T14:18:49.679Z,100004.88
2022-09-23T14:21:49.294Z,100007.80
2022-09-23T14:24:19.562Z,100008.45
2022-09-23T14:26:49.205Z,100014.46
2022-09-23T14:29:39.377Z,100020.02
2022-09-23T14:32:13.649Z,100022.85
2022-09-23T14:35:05.222Z,100022.29
2022-09-23T14:37:57.455Z,100018.48
2022-09-23T14:40:34.859Z,100018.95
2022-09-23T14:43:17.092Z,100020.93
2022-09-23T14:45:48.027Z,100020.48
2022-09-23T14:48:23.206Z,100016.08
2022-09-23T14:50:56.387Z,100013.58
2022-09-23T14:53:46.420Z,100011.86
2022-09-23T14:56:17.164Z,100013.09
2022-09-23T14:58:55.208Z,100013.49
2022-09-23T15:01:33.638Z,100011.97
2022-09-23T15:04:10.958Z,100009.20
2022-09-23T15:06:43.161Z,100010.70
2022-09-23T15:09:20.748Z,100014.16
2022-09-23T15:11:51.976Z,100013.76
2022-09-23T15:14:37.090Z,100015.82
2022-09-23T15:17:25.854Z,100015.19
2022-09-23T15:19:57.530Z,100017.38
2022-09-23T15:22:26.098Z,100015.52
2022-09-23T15:24:56.513Z,100016.04
2022-09-23T15:27:34.600Z,100009.23
2022-09-23T15:30:17.213Z,100010.11
2022-09-23T15:32:46.682Z,100009.65
2022-09-23T15:35:21.186Z,100010.23
2022-09-23T15:37:51.715Z,100008.81
2022-09-23T15:40:26.108Z,100009.80
2022-09-23T15:42:57.017Z,100020.29
2022-09-23T15:45:53.307Z,100022.70
2022-09-23T15:48:29.530Z,100024.09
2022-09-23T15:51:04.275Z,100028.06
2022-09-23T15:53:33.143Z,100030.27
2022-09-23T15:56:01.533Z,100036.23
2022-09-23T15:58:29.931Z,100043.09
2022-09-23T16:00:59.565Z,100047.10
2022-09-23T16:03:30.783Z,100049.21
2022-09-23T16:06:03.286Z,100055.22
2022-09-23T16:08:33.147Z,100055.06
2022-09-23T16:11:01.577Z,100056.83
2022-09-23T16:13:29.779Z,100059.35
2022-09-23T16:15:58.023Z,100055.80
2022-09-23T16:18:26.185Z,100057.16
2022-09-23T16:20:54.876Z,100056.61
2022-09-23T16:23:35.281Z,100056.36
2022-09-23T16:26:15.776Z,100054.08
2022-09-23T16:28:46.367Z,100053.83
2022-09-23T16:31:18.734Z,100053.13
2022-09-23T16:33:48.451Z,100055.23
2022-09-23T16:36:21.419Z,100054.35
2022-09-23T16:38:50.250Z,100052.92
2022-09-23T16:44:07.499Z,100051.14
2022-09-23T16:52:07.674Z,100054.02
2022-09-23T16:54:37.650Z,100054.17
2022-09-23T16:57:05.711Z,100055.58
2022-09-23T16:59:53.782Z,100056.74
2022-09-23T17:02:40.676Z,100057.06
2022-09-23T17:05:09.274Z,100060.31
2022-09-23T17:07:38.226Z,100061.52
2022-09-23T17:10:07.169Z,100066.00
2022-09-23T17:12:35.362Z,100064.90
2022-09-23T17:15:07.361Z,100066.75
2022-09-23T17:17:37.681Z,100069.41
2022-09-23T17:20:06.869Z,100073.45
2022-09-23T17:28:06.547Z,100079.81
2022-09-23T17:30:34.841Z,100082.73
2022-09-23T17:33:02.852Z,100087.67
2022-09-23T17:35:30.910Z,100087.27
2022-09-23T17:37:58.897Z,100092.34
2022-09-23T17:40:27.844Z,100091.90
2022-09-23T17:48:32.234Z,100088.94
2022-09-23T17:51:10.588Z,100091.61
2022-09-23T17:53:46.013Z,100090.73
2022-09-23T17:56:14.116Z,100089.19
2022-09-23T17:58:43.261Z,100092.80
2022-09-23T18:01:13.946Z,100093.11
2022-09-23T18:03:45.753Z,100094.84
2022-09-23T18:06:19.200Z,100095.09
2022-09-23T18:08:49.215Z,100096.73
2022-09-23T18:11:20.451Z,100097.73
2022-09-23T18:13:54.203Z,100092.00
2022-09-23T18:16:24.501Z,100090.70
2022-09-23T18:18:54.402Z,100094.92
2022-09-23T18:21:24.596Z,100095.69
2022-09-23T18:23:53.083Z,100093.37
2022-09-23T18:26:23.562Z,100089.86
2022-09-23T18:28:55.757Z,100089.37
2022-09-23T18:31:24.230Z,100091.27
2022-09-23T18:33:54.404Z,100090.63
2022-09-23T18:36:24.681Z,100089.89
2022-09-23T18:38:53.170Z,100092.30
2022-09-23T18:41:22.238Z,100092.67
2022-09-23T18:43:50.500Z,100093.32
2022-09-23T18:46:24.502Z,100092.44
2022-09-23T18:49:12.250Z,100086.36
2022-09-23T18:51:56.044Z,100092.02
2022-09-23T18:54:28.529Z,100090.21
2022-09-23T18:56:57.590Z,100095.95
2022-09-23T18:59:29.508Z,100094.54
2022-09-23T19:01:59.227Z,100093.58
2022-09-23T19:04:27.673Z,100092.64
2022-09-23T19:06:56.811Z,100092.13
2022-09-23T19:09:25.655Z,100094.87
2022-09-23T19:11:53.967Z,100093.84
2022-09-23T19:14:22.462Z,100097.05
2022-09-23T19:16:50.961Z,100101.12
2022-09-23T19:19:19.165Z,100093.46
2022-09-23T19:21:47.452Z,100091.52
2022-09-23T19:24:20.607Z,100090.13
2022-09-23T19:26:50.430Z,100093.82
2022-09-23T19:29:19.908Z,100096.80
2022-09-23T19:31:49.097Z,100096.30
2022-09-23T19:34:20.321Z,100096.13
2022-09-23T19:36:48.718Z,100099.21
2022-09-23T19:39:22.358Z,100100.09
2022-09-23T19:41:52.642Z,100103.27
2022-09-23T19:44:20.850Z,100107.38
2022-09-23T19:46:55.120Z,100106.31
2022-09-23T19:49:25.549Z,100105.29
2022-09-23T19:51:56.173Z,100104.84
2022-09-23T19:54:27.663Z,100107.44
2022-09-23T19:56:56.075Z,100106.07
2022-09-23T19:59:26.615Z,100104.82
2022-09-23T20:01:55.024Z,100103.73
2022-09-23T20:04:23.253Z,100106.45
2022-09-23T20:06:51.375Z,100109.17
2022-09-23T20:09:19.505Z,100112.36
2022-09-23T20:11:47.741Z,100109.71
2022-09-23T20:14:15.778Z,100108.63
2022-09-23T20:16:44.553Z,100108.45
2022-09-23T20:19:13.715Z,100100.05
2022-09-23T20:21:41.753Z,100104.77
2022-09-23T20:24:12.030Z,100103.90
2022-09-23T20:26:58.939Z,100102.04
2022-09-23T20:29:27.061Z,100103.55
2022-09-23T20:31:56.429Z,100099.29
2022-09-23T20:34:24.645Z,100102.27
2022-09-23T20:36:52.735Z,100104.49
2022-09-23T20:39:21.206Z,100106.87
2022-09-23T20:41:49.891Z,100106.80
2022-09-23T20:44:18.610Z,100109.92
2022-09-23T20:46:48.954Z,100107.45
2022-09-23T20:49:18.118Z,100105.79
2022-09-23T20:51:50.165Z,100103.08
2022-09-23T20:54:21.190Z,100099.05
2022-09-23T20:56:49.340Z,100102.86
2022-09-23T20:59:18.637Z,100097.12
2022-09-23T21:01:47.801Z,100094.35
2022-09-23T21:04:16.394Z,100092.33
2022-09-23T21:06:44.564Z,100091.99
2022-09-23T21:09:12.692Z,100090.89
2022-09-23T21:11:41.030Z,100087.43
2022-09-23T21:14:09.864Z,100086.05
2022-09-23T21:16:38.812Z,100083.89
2022-09-23T21:19:08.280Z,100085.09
2022-09-23T21:21:36.423Z,100086.35
2022-09-23T21:24:31.397Z,100085.40
2022-09-23T21:26:52.760Z,100079.95
2022-09-23T21:29:21.192Z,100083.18
2022-09-23T21:31:49.918Z,100082.14
2022-09-23T21:34:19.415Z,100079.95
2022-09-23T21:36:48.179Z,100082.12
2022-09-23T21:39:16.788Z,100086.52
2022-09-23T21:41:45.230Z,100087.03
2022-09-23T21:44:13.392Z,100084.73
2022-09-23T21:46:41.725Z,100085.90
2022-09-23T21:49:09.950Z,100086.01
2022-09-23T21:51:42.994Z,100085.85
2022-09-23T21:54:15.793Z,100089.36
2022-09-23T21:56:44.867Z,100086.54
2022-09-23T21:59:13.142Z,100093.45
2022-09-23T22:01:44.642Z,100089.67
2022-09-23T22:04:19.204Z,100086.30
2022-09-23T22:06:49.237Z,100085.02
2022-09-23T22:09:19.983Z,100085.23
2022-09-23T22:12:09.807Z,100082.61
2022-09-23T22:14:39.288Z,100076.34
2022-09-23T22:17:11.537Z,100078.73
2022-09-23T22:19:45.888Z,100079.91
2022-09-23T22:22:18.541Z,100087.84
2022-09-23T22:24:47.909Z,100091.77
2022-09-23T22:27:19.627Z,100087.96
2022-09-23T22:30:06.691Z,100087.98
2022-09-23T22:32:40.795Z,100083.08
2022-09-23T22:35:12.347Z,100088.20
2022-09-23T22:37:40.477Z,100087.00
2022-09-23T22:40:14.206Z,100087.80
2022-09-23T22:42:43.040Z,100092.52
2022-09-23T22:45:12.628Z,100094.15
2022-09-23T22:47:45.690Z,100092.46
2022-09-23T22:50:14.809Z,100096.54
2022-09-23T22:52:43.566Z,100095.90
2022-09-23T22:55:12.089Z,100094.32
2022-09-23T22:57:40.529Z,100092.48
2022-09-23T23:00:09.676Z,100090.91
2022-09-23T23:02:37.756Z,100086.33
2022-09-23T23:05:06.570Z,100084.05
2022-09-23T23:07:35.159Z,100079.95
2022-09-23T23:10:04.920Z,100082.42
2022-09-23T23:12:33.647Z,100080.21
2022-09-23T23:15:01.715Z,100080.65
2022-09-23T23:17:30.027Z,100084.36
2022-09-23T23:19:58.466Z,100079.88
2022-09-23T23:22:28.621Z,100079.38
2022-09-23T23:24:56.871Z,100079.36
2022-09-23T23:27:25.092Z,100080.29
2022-09-23T23:29:53.196Z,100079.22
2022-09-23T23:32:21.257Z,100083.59
2022-09-23T23:34:49.296Z,100078.97
2022-09-23T23:37:20.783Z,100070.76
2022-09-23T23:39:49.301Z,100075.05
2022-09-23T23:42:17.814Z,100077.08
2022-09-23T23:44:45.962Z,100078.73
2022-09-23T23:47:14.119Z,100080.80
2022-09-23T23:49:42.155Z,100080.75
2022-09-23T23:52:10.436Z,100080.80
2022-09-23T23:54:39.234Z,100074.35
2022-09-23T23:57:07.333Z,100063.11
2022-09-23T23:59:35.771Z,100070.83
